METAR Data
IDs: Format: Raw Decoded Include TAF

Data at: 2041 UTC 01 Dec 2021

LZKZ 012030Z 19007KT 9999 BKN035 04/03 Q1002